Time;durP1;ratioP1;P1;durP2;ratioP2;P2;SDS_P1;SDS_P2;PMS_P1;PMS_P2;Temp;Humidity;BMP_temperature;BMP_pressure;BME280_temperature;BME280_humidity;BME280_pressure;Samples;Min_cycle;Max_cycle;Signal;HPM_P1;HPM_P2
2023/02/10 00:01:36;;;;;;;;;19.50;19.00;;;;;;;;119971;1182;24741;-71
2023/02/10 00:04:05;;;;;;;;;21.00;17.50;;;;;;;;120067;1189;25403;-71
2023/02/10 00:06:33;;;;;;;;;18.00;16.25;;;;;;;;119902;1190;25005;-72
2023/02/10 00:09:02;;;;;;;;;17.25;15.25;;;;;;;;119964;1181;25458;-71
2023/02/10 00:14:18;;;;;;;;;18.50;15.75;;;;;;;;120056;1187;25781;-72
2023/02/10 00:16:50;;;;;;;;;23.00;19.00;;;;;;;;119950;1190;25533;-72
2023/02/10 00:19:20;;;;;;;;;19.75;14.00;;;;;;;;119927;1182;25436;-72
2023/02/10 00:21:49;;;;;;;;;17.50;14.50;;;;;;;;119943;1190;24778;-71
2023/02/10 00:24:18;;;;;;;;;20.75;18.25;;;;;;;;119959;1190;24733;-72
2023/02/10 00:26:47;;;;;;;;;16.00;14.00;;;;;;;;119919;1181;25318;-71
2023/02/10 00:29:15;;;;;;;;;16.75;13.75;;;;;;;;119941;1190;24964;-71
2023/02/10 00:31:44;;;;;;;;;17.75;16.00;;;;;;;;119895;1190;25001;-71
2023/02/10 00:34:14;;;;;;;;;21.00;18.50;;;;;;;;120085;1189;25310;-71
2023/02/10 00:36:43;;;;;;;;;20.00;15.00;;;;;;;;119930;1189;24731;-71
2023/02/10 00:39:15;;;;;;;;;18.00;15.00;;;;;;;;119902;1187;25348;-71
2023/02/10 00:41:43;;;;;;;;;20.00;16.25;;;;;;;;119897;1187;25287;-71
2023/02/10 00:44:11;;;;;;;;;19.00;14.67;;;;;;;;120008;1186;25522;-71
2023/02/10 00:46:40;;;;;;;;;16.75;15.25;;;;;;;;119899;1183;25637;-71
2023/02/10 00:49:10;;;;;;;;;19.50;17.50;;;;;;;;120067;1189;24795;-71
2023/02/10 00:51:38;;;;;;;;;20.00;16.50;;;;;;;;119896;1190;24837;-71
2023/02/10 00:54:06;;;;;;;;;17.25;13.00;;;;;;;;119905;1181;25543;-71
2023/02/10 00:56:35;;;;;;;;;17.25;16.00;;;;;;;;120066;1190;24876;-67
2023/02/10 00:59:03;;;;;;;;;17.00;13.25;;;;;;;;119929;1190;24936;-71
2023/02/10 01:01:31;;;;;;;;;14.50;13.50;;;;;;;;119897;1189;25503;-71
2023/02/10 01:04:00;;;;;;;;;14.25;13.00;;;;;;;;119883;1183;25283;-69
2023/02/10 01:06:28;;;;;;;;;15.75;14.50;;;;;;;;119954;1190;25522;-71
2023/02/10 01:08:56;;;;;;;;;17.25;14.50;;;;;;;;120112;1190;25340;-72
2023/02/10 01:11:24;;;;;;;;;19.00;15.00;;;;;;;;120214;1177;25706;-71
2023/02/10 01:13:53;;;;;;;;;16.75;16.75;;;;;;;;119952;1189;24776;-70
2023/02/10 01:16:21;;;;;;;;;15.67;15.00;;;;;;;;120018;1190;25548;-68
2023/02/10 01:18:50;;;;;;;;;16.25;13.25;;;;;;;;119895;1190;24793;-68
2023/02/10 01:21:20;;;;;;;;;17.50;16.50;;;;;;;;119944;1186;25612;-68
2023/02/10 01:23:48;;;;;;;;;13.33;9.67;;;;;;;;119901;1190;24879;-69
2023/02/10 01:26:16;;;;;;;;;15.33;14.33;;;;;;;;119919;1182;25565;-71
2023/02/10 01:28:45;;;;;;;;;20.00;17.50;;;;;;;;119899;1181;25486;-79
2023/02/10 01:31:16;;;;;;;;;15.50;15.25;;;;;;;;119894;1187;25540;-76
2023/02/10 01:33:45;;;;;;;;;22.00;14.75;;;;;;;;119926;1190;25328;-69
2023/02/10 01:36:16;;;;;;;;;17.50;16.25;;;;;;;;119895;1190;26017;-65
2023/02/10 01:38:45;;;;;;;;;12.25;12.25;;;;;;;;120110;1190;25345;-68
2023/02/10 01:41:15;;;;;;;;;17.50;10.75;;;;;;;;119917;1190;25701;-68
2023/02/10 01:44:02;;;;;;;;;21.00;16.25;;;;;;;;119955;1190;25223;-68
2023/02/10 01:46:34;;;;;;;;;19.00;15.33;;;;;;;;120115;1190;25394;-68
2023/02/10 01:49:11;;;;;;;;;19.50;17.00;;;;;;;;119927;1190;25385;-70
2023/02/10 01:51:55;;;;;;;;;14.50;13.00;;;;;;;;119910;1190;25385;-68
2023/02/10 01:54:38;;;;;;;;;18.25;12.50;;;;;;;;119875;1190;25089;-67
2023/02/10 01:57:06;;;;;;;;;22.33;18.00;;;;;;;;119929;1186;25476;-68
2023/02/10 01:59:37;;;;;;;;;26.75;20.50;;;;;;;;119885;1190;24804;-69
2023/02/10 02:02:08;;;;;;;;;20.00;16.50;;;;;;;;119862;1190;25263;-69
2023/02/10 02:04:41;;;;;;;;;18.75;13.25;;;;;;;;119891;1182;24804;-69
2023/02/10 02:07:09;;;;;;;;;24.67;19.67;;;;;;;;119883;1190;25258;-69
2023/02/10 02:09:37;;;;;;;;;25.75;21.75;;;;;;;;119880;1190;25662;-68
2023/02/10 02:12:20;;;;;;;;;25.75;18.50;;;;;;;;119920;1190;24696;-70
2023/02/10 02:15:03;;;;;;;;;27.00;23.00;;;;;;;;120006;1190;25001;-66
2023/02/10 02:17:44;;;;;;;;;20.33;18.67;;;;;;;;119942;1190;25835;-64
2023/02/10 02:20:41;;;;;;;;;20.00;20.00;;;;;;;;119897;1190;25038;-63
2023/02/10 02:23:31;;;;;;;;;21.75;19.25;;;;;;;;119932;1187;25040;-63
2023/02/10 02:26:20;;;;;;;;;22.00;19.75;;;;;;;;120111;1190;25221;-64
2023/02/10 02:29:14;;;;;;;;;27.75;24.00;;;;;;;;119938;1190;24699;-64
2023/02/10 02:31:52;;;;;;;;;25.67;23.00;;;;;;;;120094;1190;24784;-63
2023/02/10 02:34:20;;;;;;;;;26.75;23.00;;;;;;;;120096;1190;25729;-63
2023/02/10 02:37:02;;;;;;;;;17.50;14.50;;;;;;;;120113;1190;25068;-63
2023/02/10 02:39:32;;;;;;;;;22.00;17.25;;;;;;;;119962;1178;25479;-63
2023/02/10 02:42:17;;;;;;;;;20.33;15.33;;;;;;;;119940;1190;25465;-63
2023/02/10 02:44:51;;;;;;;;;29.75;24.75;;;;;;;;120123;1182;25639;-63
2023/02/10 02:47:27;;;;;;;;;25.50;22.25;;;;;;;;120099;1190;25358;-63
2023/02/10 02:50:07;;;;;;;;;28.33;23.67;;;;;;;;119919;1190;25591;-63
2023/02/10 02:53:06;;;;;;;;;31.67;24.67;;;;;;;;119935;1181;25276;-63
2023/02/10 02:56:11;;;;;;;;;26.00;23.00;;;;;;;;119920;1181;25333;-64
2023/02/10 02:58:56;;;;;;;;;27.33;22.67;;;;;;;;119901;1190;25252;-65
2023/02/10 03:01:31;;;;;;;;;26.50;24.00;;;;;;;;119933;1186;24919;-64
2023/02/10 03:04:00;;;;;;;;;24.50;23.00;;;;;;;;120026;1190;25409;-64
2023/02/10 03:06:29;;;;;;;;;20.25;20.00;;;;;;;;119912;1182;24944;-65
2023/02/10 03:08:57;;;;;;;;;32.00;26.25;;;;;;;;119904;1190;26075;-64
2023/02/10 03:11:25;;;;;;;;;25.25;23.00;;;;;;;;119986;1190;24899;-64
2023/02/10 03:13:54;;;;;;;;;25.75;20.75;;;;;;;;120002;1182;25260;-64
2023/02/10 03:16:22;;;;;;;;;30.00;24.00;;;;;;;;120065;1181;24842;-65
2023/02/10 03:18:50;;;;;;;;;24.50;19.50;;;;;;;;119979;1190;25681;-65
2023/02/10 03:21:19;;;;;;;;;22.00;20.50;;;;;;;;120094;1190;25660;-65
2023/02/10 03:23:47;;;;;;;;;28.50;24.00;;;;;;;;119833;1182;25772;-65
2023/02/10 03:26:15;;;;;;;;;21.00;20.00;;;;;;;;119738;1189;25132;-65
2023/02/10 03:28:43;;;;;;;;;25.25;23.75;;;;;;;;119921;1190;25480;-65
2023/02/10 03:31:12;;;;;;;;;26.00;17.67;;;;;;;;119930;1183;24997;-65
2023/02/10 03:33:40;;;;;;;;;28.33;24.33;;;;;;;;119907;1190;25645;-65
2023/02/10 03:36:08;;;;;;;;;34.00;27.00;;;;;;;;119921;1177;25390;-65
2023/02/10 03:38:37;;;;;;;;;28.00;24.50;;;;;;;;120104;1190;25188;-65
2023/02/10 03:41:05;;;;;;;;;26.75;21.00;;;;;;;;119895;1182;24830;-65
2023/02/10 03:43:33;;;;;;;;;34.67;25.67;;;;;;;;119880;1190;25439;-65
2023/02/10 03:46:03;;;;;;;;;24.25;22.25;;;;;;;;119912;1190;24900;-65
2023/02/10 03:48:32;;;;;;;;;24.75;17.50;;;;;;;;119734;1190;25447;-65
2023/02/10 03:51:02;;;;;;;;;27.00;22.33;;;;;;;;119898;1182;25006;-65
2023/02/10 03:53:31;;;;;;;;;28.00;25.50;;;;;;;;120059;1189;25216;-64
2023/02/10 03:56:00;;;;;;;;;25.25;20.75;;;;;;;;119913;1190;25660;-65
2023/02/10 03:58:28;;;;;;;;;21.25;20.50;;;;;;;;119958;1181;25585;-65
2023/02/10 04:00:56;;;;;;;;;23.67;21.00;;;;;;;;120066;1189;24955;-65
2023/02/10 04:03:25;;;;;;;;;23.50;21.50;;;;;;;;119903;1190;24775;-65
2023/02/10 04:05:53;;;;;;;;;23.00;19.00;;;;;;;;119912;1187;24765;-65
2023/02/10 04:08:24;;;;;;;;;21.67;20.00;;;;;;;;119950;1190;25041;-64
2023/02/10 04:10:53;;;;;;;;;23.50;21.25;;;;;;;;120038;1181;25512;-66
2023/02/10 04:13:21;;;;;;;;;21.00;19.25;;;;;;;;119878;1190;24911;-65
2023/02/10 04:16:06;;;;;;;;;25.00;21.75;;;;;;;;119923;1190;24757;-66
2023/02/10 04:18:34;;;;;;;;;23.50;19.25;;;;;;;;119949;1190;25265;-66
2023/02/10 04:21:04;;;;;;;;;26.50;23.00;;;;;;;;119935;1189;25188;-66
2023/02/10 04:23:33;;;;;;;;;25.33;22.67;;;;;;;;119931;1187;24908;-65
2023/02/10 04:26:01;;;;;;;;;21.33;18.33;;;;;;;;119946;1181;24996;-65
2023/02/10 04:28:30;;;;;;;;;26.50;22.50;;;;;;;;119890;1189;25499;-65
2023/02/10 04:31:00;;;;;;;;;20.00;18.33;;;;;;;;119910;1182;25137;-65
2023/02/10 04:33:29;;;;;;;;;24.00;18.50;;;;;;;;120118;1189;24938;-65
2023/02/10 04:35:57;;;;;;;;;26.00;20.25;;;;;;;;120103;1181;25425;-65
2023/02/10 04:38:25;;;;;;;;;25.25;23.00;;;;;;;;120087;1190;25296;-65
2023/02/10 04:40:54;;;;;;;;;20.67;19.67;;;;;;;;120115;1190;24958;-65
2023/02/10 04:43:22;;;;;;;;;17.75;16.25;;;;;;;;119896;1184;25048;-66
2023/02/10 04:45:51;;;;;;;;;20.33;19.00;;;;;;;;119917;1186;25372;-65
2023/02/10 04:48:21;;;;;;;;;22.00;17.75;;;;;;;;119907;1190;25647;-64
2023/02/10 04:50:49;;;;;;;;;23.00;21.75;;;;;;;;119891;1182;24862;-65
2023/02/10 04:53:17;;;;;;;;;24.25;20.00;;;;;;;;119812;1189;26485;-65
2023/02/10 04:55:46;;;;;;;;;27.00;25.00;;;;;;;;120126;1189;25135;-65
2023/02/10 04:58:15;;;;;;;;;28.25;22.75;;;;;;;;119954;1179;25471;-65
2023/02/10 05:00:43;;;;;;;;;19.00;17.33;;;;;;;;119914;1182;25128;-66
2023/02/10 05:03:11;;;;;;;;;28.33;22.33;;;;;;;;120113;1176;25344;-65
2023/02/10 05:05:40;;;;;;;;;25.25;23.25;;;;;;;;119884;1190;25521;-65
2023/02/10 05:08:08;;;;;;;;;24.33;21.33;;;;;;;;120055;1190;25635;-65
2023/02/10 05:10:37;;;;;;;;;23.33;23.00;;;;;;;;120103;1190;24866;-65
2023/02/10 05:13:05;;;;;;;;;25.00;22.50;;;;;;;;120104;1182;25833;-65
2023/02/10 05:15:33;;;;;;;;;22.75;17.75;;;;;;;;120102;1176;24725;-65
2023/02/10 05:18:01;;;;;;;;;20.33;18.00;;;;;;;;120091;1190;25648;-65
2023/02/10 05:20:30;;;;;;;;;22.75;21.25;;;;;;;;119894;1190;25661;-66
2023/02/10 05:22:58;;;;;;;;;21.00;19.67;;;;;;;;119904;1182;25856;-65
2023/02/10 05:25:26;;;;;;;;;18.75;17.75;;;;;;;;119935;1177;25196;-65
2023/02/10 05:27:55;;;;;;;;;25.25;20.50;;;;;;;;119893;1190;25034;-65
2023/02/10 05:30:23;;;;;;;;;22.00;22.00;;;;;;;;119948;1182;24845;-65
2023/02/10 05:32:51;;;;;;;;;23.75;22.50;;;;;;;;119930;1190;25956;-65
2023/02/10 05:35:19;;;;;;;;;20.50;16.75;;;;;;;;119997;1190;25175;-64
2023/02/10 05:37:48;;;;;;;;;23.50;22.75;;;;;;;;120106;1190;24963;-64
2023/02/10 05:40:16;;;;;;;;;19.25;18.50;;;;;;;;120106;1181;25169;-65
2023/02/10 05:42:44;;;;;;;;;21.50;16.75;;;;;;;;120079;1189;25319;-65
2023/02/10 05:45:13;;;;;;;;;28.00;21.00;;;;;;;;120100;1190;25655;-66
2023/02/10 05:47:41;;;;;;;;;26.50;24.50;;;;;;;;119926;1190;25010;-66
2023/02/10 05:50:09;;;;;;;;;25.50;21.75;;;;;;;;120084;1186;25429;-66
2023/02/10 05:52:37;;;;;;;;;22.75;17.25;;;;;;;;120108;1190;25380;-66
2023/02/10 05:55:06;;;;;;;;;24.33;19.67;;;;;;;;120091;1187;25209;-66
2023/02/10 05:57:35;;;;;;;;;26.00;22.67;;;;;;;;119940;1190;25698;-67
2023/02/10 06:00:04;;;;;;;;;30.00;24.00;;;;;;;;119936;1190;24814;-65
2023/02/10 06:02:32;;;;;;;;;26.50;22.25;;;;;;;;119890;1190;25561;-65
2023/02/10 06:05:01;;;;;;;;;17.00;14.00;;;;;;;;119941;1190;25652;-66
2023/02/10 06:07:29;;;;;;;;;24.00;17.25;;;;;;;;120112;1190;24833;-66
2023/02/10 06:09:58;;;;;;;;;20.00;16.67;;;;;;;;119942;1190;24740;-66
2023/02/10 06:12:26;;;;;;;;;26.25;19.75;;;;;;;;120109;1181;24991;-66
2023/02/10 06:14:54;;;;;;;;;26.33;21.33;;;;;;;;120105;1181;25603;-65
2023/02/10 06:17:23;;;;;;;;;22.00;20.00;;;;;;;;119911;1190;25450;-65
2023/02/10 06:19:51;;;;;;;;;25.00;19.33;;;;;;;;119922;1183;25628;-65
2023/02/10 06:22:20;;;;;;;;;26.00;23.50;;;;;;;;119934;1186;25099;-65
2023/02/10 06:24:48;;;;;;;;;30.00;24.00;;;;;;;;120020;1186;25583;-66
2023/02/10 06:27:17;;;;;;;;;19.25;16.75;;;;;;;;120050;1182;26335;-66
2023/02/10 06:29:45;;;;;;;;;27.33;22.00;;;;;;;;120002;1186;25003;-66
2023/02/10 06:32:13;;;;;;;;;20.00;20.00;;;;;;;;120008;1181;25003;-65
2023/02/10 06:34:42;;;;;;;;;28.00;27.00;;;;;;;;119944;1185;24726;-66
2023/02/10 06:37:10;;;;;;;;;20.75;18.50;;;;;;;;119964;1186;24988;-66
2023/02/10 06:39:38;;;;;;;;;24.00;21.00;;;;;;;;120000;1190;25597;-66
2023/02/10 06:42:06;;;;;;;;;24.50;19.50;;;;;;;;120001;1190;25434;-65
2023/02/10 06:44:35;;;;;;;;;23.00;20.67;;;;;;;;119995;1186;25039;-65
2023/02/10 06:47:03;;;;;;;;;25.50;24.75;;;;;;;;120088;1182;24891;-65
2023/02/10 06:49:31;;;;;;;;;26.50;21.00;;;;;;;;119914;1187;24896;-65
2023/02/10 06:52:00;;;;;;;;;20.00;19.00;;;;;;;;120023;1190;25466;-65
2023/02/10 06:54:28;;;;;;;;;24.25;22.75;;;;;;;;120073;1190;25008;-68
2023/02/10 06:56:56;;;;;;;;;26.75;22.25;;;;;;;;119874;1190;25286;-68
2023/02/10 06:59:25;;;;;;;;;26.00;20.25;;;;;;;;120079;1185;24796;-66
2023/02/10 07:01:59;;;;;;;;;25.67;22.00;;;;;;;;119998;1190;25479;-68
2023/02/10 07:04:29;;;;;;;;;20.50;18.50;;;;;;;;119922;1188;25485;-67
2023/02/10 07:06:58;;;;;;;;;25.50;19.25;;;;;;;;119886;1188;25023;-66
2023/02/10 07:09:26;;;;;;;;;25.00;18.75;;;;;;;;119938;1190;24865;-66
2023/02/10 07:11:57;;;;;;;;;26.25;21.75;;;;;;;;119993;1190;25242;-67
2023/02/10 07:14:26;;;;;;;;;20.75;20.75;;;;;;;;119956;1183;25473;-65
2023/02/10 07:16:54;;;;;;;;;27.67;18.67;;;;;;;;119992;1183;25089;-65
2023/02/10 07:19:22;;;;;;;;;22.75;20.75;;;;;;;;120094;1182;25725;-63
2023/02/10 07:21:50;;;;;;;;;21.00;19.00;;;;;;;;120061;1190;25100;-64
2023/02/10 07:24:19;;;;;;;;;20.00;16.33;;;;;;;;120079;1190;25023;-64
2023/02/10 07:26:47;;;;;;;;;23.50;16.25;;;;;;;;120094;1190;25270;-64
2023/02/10 07:29:15;;;;;;;;;25.25;20.50;;;;;;;;120087;1181;24907;-64
2023/02/10 07:31:43;;;;;;;;;24.50;22.00;;;;;;;;119918;1190;25258;-64
2023/02/10 07:34:12;;;;;;;;;23.33;22.67;;;;;;;;120115;1190;25472;-64
2023/02/10 07:36:40;;;;;;;;;21.25;19.50;;;;;;;;120121;1189;25176;-64
2023/02/10 07:39:10;;;;;;;;;21.00;16.00;;;;;;;;120102;1177;26253;-64
2023/02/10 07:41:39;;;;;;;;;20.75;19.00;;;;;;;;120111;1190;25239;-64
2023/02/10 07:44:07;;;;;;;;;28.00;20.75;;;;;;;;120108;1190;25185;-64
2023/02/10 07:46:36;;;;;;;;;26.00;18.50;;;;;;;;119941;1190;25072;-65
2023/02/10 07:49:04;;;;;;;;;22.25;18.25;;;;;;;;120109;1189;24821;-65
2023/02/10 07:51:32;;;;;;;;;13.67;12.00;;;;;;;;119917;1182;25595;-66
2023/02/10 07:54:01;;;;;;;;;24.00;21.00;;;;;;;;119883;1190;24802;-66
2023/02/10 07:56:29;;;;;;;;;24.25;22.50;;;;;;;;119916;1190;25606;-66
2023/02/10 07:58:58;;;;;;;;;25.00;22.00;;;;;;;;119903;1190;25227;-67
2023/02/10 08:01:27;;;;;;;;;28.75;22.50;;;;;;;;119906;1190;25678;-66
2023/02/10 08:03:57;;;;;;;;;24.67;21.33;;;;;;;;120113;1190;25611;-66
2023/02/10 08:06:26;;;;;;;;;25.33;21.00;;;;;;;;120116;1182;25267;-67
2023/02/10 08:08:54;;;;;;;;;24.50;21.50;;;;;;;;119896;1190;25158;-68
2023/02/10 08:11:22;;;;;;;;;30.50;24.50;;;;;;;;119945;1190;25034;-67
2023/02/10 08:13:51;;;;;;;;;26.50;21.75;;;;;;;;120111;1182;24765;-67
2023/02/10 08:16:19;;;;;;;;;21.00;19.50;;;;;;;;120094;1190;25041;-68
2023/02/10 08:18:47;;;;;;;;;23.00;19.00;;;;;;;;120117;1182;25491;-67
2023/02/10 08:21:15;;;;;;;;;18.50;15.00;;;;;;;;120095;1182;25555;-68
2023/02/10 08:23:45;;;;;;;;;18.00;15.50;;;;;;;;120006;1189;25425;-70
2023/02/10 08:26:14;;;;;;;;;24.33;22.00;;;;;;;;120017;1186;24945;-65
2023/02/10 08:28:42;;;;;;;;;22.00;20.25;;;;;;;;120100;1182;25629;-64
2023/02/10 08:31:10;;;;;;;;;22.00;20.33;;;;;;;;119907;1182;25183;-67
2023/02/10 08:33:41;;;;;;;;;22.50;19.75;;;;;;;;120081;1190;24863;-68
2023/02/10 08:36:16;;;;;;;;;26.00;22.00;;;;;;;;119909;1190;24836;-61
2023/02/10 08:38:46;;;;;;;;;23.67;22.67;;;;;;;;119919;1182;24773;-63
2023/02/10 08:41:15;;;;;;;;;19.67;19.00;;;;;;;;119880;1182;24784;-65
2023/02/10 08:43:43;;;;;;;;;21.33;16.00;;;;;;;;119921;1187;25532;-64
2023/02/10 08:46:12;;;;;;;;;20.25;18.25;;;;;;;;119897;1190;25268;-64
2023/02/10 08:48:40;;;;;;;;;19.33;18.00;;;;;;;;120061;1186;25981;-63
2023/02/10 08:51:10;;;;;;;;;23.25;19.25;;;;;;;;120018;1189;24808;-63
2023/02/10 08:53:39;;;;;;;;;23.25;20.50;;;;;;;;119903;1190;25030;-64
2023/02/10 08:56:10;;;;;;;;;19.50;17.50;;;;;;;;120107;1190;25363;-63
2023/02/10 08:58:40;;;;;;;;;18.50;16.00;;;;;;;;120091;1182;24808;-62
2023/02/10 09:01:15;;;;;;;;;27.67;20.33;;;;;;;;119920;1190;25116;-62
2023/02/10 09:03:44;;;;;;;;;24.25;21.50;;;;;;;;119927;1183;25073;-62
2023/02/10 09:06:20;;;;;;;;;22.50;21.00;;;;;;;;119922;1190;25066;-65
2023/02/10 09:08:49;;;;;;;;;18.25;16.50;;;;;;;;119931;1182;24945;-66
2023/02/10 09:11:18;;;;;;;;;25.33;22.67;;;;;;;;119917;1182;25632;-66
2023/02/10 09:13:46;;;;;;;;;29.00;25.50;;;;;;;;119913;1190;25563;-67
2023/02/10 09:16:15;;;;;;;;;22.67;21.00;;;;;;;;119910;1190;24661;-70
2023/02/10 09:18:43;;;;;;;;;22.33;18.33;;;;;;;;119892;1182;24976;-66
2023/02/10 09:21:12;;;;;;;;;21.50;18.75;;;;;;;;119929;1182;25181;-67
2023/02/10 09:23:40;;;;;;;;;25.75;22.75;;;;;;;;120123;1176;25102;-65
2023/02/10 09:26:10;;;;;;;;;17.25;17.00;;;;;;;;119942;1189;25768;-68
2023/02/10 09:28:39;;;;;;;;;21.50;17.50;;;;;;;;119942;1190;25536;-67
2023/02/10 09:31:09;;;;;;;;;24.75;23.00;;;;;;;;120110;1189;24982;-73
2023/02/10 09:33:38;;;;;;;;;23.75;19.75;;;;;;;;119903;1181;24710;-69
2023/02/10 09:36:07;;;;;;;;;27.00;22.33;;;;;;;;119939;1190;25237;-71
2023/02/10 09:38:35;;;;;;;;;27.00;20.50;;;;;;;;119888;1190;25332;-69
2023/02/10 09:41:19;;;;;;;;;26.50;23.50;;;;;;;;119901;1190;25658;-70
2023/02/10 09:43:57;;;;;;;;;26.67;23.67;;;;;;;;119900;1179;25618;-69
2023/02/10 09:46:48;;;;;;;;;26.67;22.67;;;;;;;;119915;1190;25664;-70
2023/02/10 09:49:23;;;;;;;;;23.67;18.33;;;;;;;;119911;1182;25263;-68
2023/02/10 09:52:17;;;;;;;;;27.75;23.25;;;;;;;;119919;1190;25526;-67
2023/02/10 09:54:46;;;;;;;;;24.75;19.50;;;;;;;;120057;1182;25141;-68
2023/02/10 09:57:19;;;;;;;;;25.25;23.25;;;;;;;;119957;1190;25117;-68
2023/02/10 09:59:50;;;;;;;;;25.50;22.00;;;;;;;;119905;1189;25566;-66
2023/02/10 10:02:34;;;;;;;;;24.67;19.00;;;;;;;;119951;1182;24703;-69
2023/02/10 10:05:15;;;;;;;;;26.75;22.25;;;;;;;;119954;1190;24898;-66
2023/02/10 10:07:48;;;;;;;;;22.00;17.25;;;;;;;;119955;1189;24763;-67
2023/02/10 10:10:52;;;;;;;;;24.50;22.25;;;;;;;;120076;1183;25679;-69
2023/02/10 10:13:24;;;;;;;;;23.50;20.00;;;;;;;;120043;1189;25024;-66
2023/02/10 10:16:13;;;;;;;;;24.75;22.25;;;;;;;;119950;1190;25119;-69
2023/02/10 10:18:57;;;;;;;;;28.75;24.00;;;;;;;;120118;1189;25598;-70
2023/02/10 10:21:56;;;;;;;;;19.33;19.33;;;;;;;;119951;1182;25394;-72
2023/02/10 10:24:46;;;;;;;;;23.00;19.00;;;;;;;;119919;1190;25646;-68
2023/02/10 10:27:30;;;;;;;;;26.00;24.00;;;;;;;;119922;1190;24806;-67
2023/02/10 10:30:07;;;;;;;;;22.00;19.00;;;;;;;;119896;1190;24852;-67
2023/02/10 10:32:35;;;;;;;;;19.33;16.00;;;;;;;;119885;1190;25341;-66
2023/02/10 10:35:14;;;;;;;;;17.00;16.50;;;;;;;;119920;1190;25095;-66
2023/02/10 10:37:43;;;;;;;;;20.67;20.33;;;;;;;;119900;1190;24722;-67
2023/02/10 10:40:27;;;;;;;;;24.75;21.00;;;;;;;;119920;1187;25181;-68
2023/02/10 10:42:59;;;;;;;;;21.33;17.33;;;;;;;;119928;1182;24918;-67
2023/02/10 10:45:31;;;;;;;;;26.50;22.50;;;;;;;;120111;1190;25280;-66
2023/02/10 10:48:15;;;;;;;;;20.00;18.25;;;;;;;;119919;1190;24796;-68
2023/02/10 10:50:43;;;;;;;;;24.00;20.00;;;;;;;;120090;1189;25009;-70
2023/02/10 10:53:15;;;;;;;;;25.00;22.75;;;;;;;;119914;1190;24889;-66
2023/02/10 10:55:48;;;;;;;;;25.25;20.50;;;;;;;;119925;1190;24980;-68
2023/02/10 10:58:28;;;;;;;;;27.00;19.50;;;;;;;;119947;1189;25071;-69
2023/02/10 11:00:59;;;;;;;;;21.67;20.67;;;;;;;;119949;1189;25127;-68
2023/02/10 11:03:27;;;;;;;;;20.25;17.75;;;;;;;;119958;1190;24922;-69
2023/02/10 11:06:09;;;;;;;;;19.25;17.00;;;;;;;;120035;1186;25374;-65
2023/02/10 11:08:44;;;;;;;;;21.33;19.00;;;;;;;;119942;1182;25195;-65
2023/02/10 11:11:15;;;;;;;;;21.25;19.00;;;;;;;;119917;1190;24783;-64
2023/02/10 11:14:16;;;;;;;;;22.33;19.33;;;;;;;;119913;1190;25328;-68
2023/02/10 11:16:53;;;;;;;;;35.00;31.33;;;;;;;;119977;1190;25504;-65
2023/02/10 11:19:25;;;;;;;;;38.00;30.50;;;;;;;;119943;1182;25624;-66
2023/02/10 11:21:54;;;;;;;;;28.25;28.25;;;;;;;;120056;1190;25084;-65
2023/02/10 11:24:32;;;;;;;;;34.00;28.50;;;;;;;;119904;1190;24886;-63
2023/02/10 11:27:03;;;;;;;;;27.00;22.33;;;;;;;;119958;1190;25000;-63
2023/02/10 11:29:34;;;;;;;;;23.00;23.00;;;;;;;;120112;1190;25183;-63
2023/02/10 11:32:03;;;;;;;;;30.00;26.25;;;;;;;;119926;1190;25369;-63
2023/02/10 11:34:31;;;;;;;;;33.00;27.67;;;;;;;;119934;1190;26234;-64
2023/02/10 11:37:10;;;;;;;;;30.00;26.00;;;;;;;;120109;1190;24983;-63
2023/02/10 11:39:42;;;;;;;;;24.67;24.33;;;;;;;;119943;1190;24682;-63
2023/02/10 11:42:16;;;;;;;;;26.67;22.00;;;;;;;;119969;1182;25574;-63
2023/02/10 11:45:01;;;;;;;;;30.67;26.00;;;;;;;;119956;1190;25080;-63
2023/02/10 11:47:31;;;;;;;;;25.00;24.00;;;;;;;;120109;1190;25535;-63
2023/02/10 11:49:59;;;;;;;;;28.00;26.00;;;;;;;;120111;1190;25565;-63
2023/02/10 11:52:29;;;;;;;;;29.00;24.50;;;;;;;;119906;1182;25563;-63
2023/02/10 11:54:58;;;;;;;;;27.25;24.75;;;;;;;;119893;1190;24709;-63
2023/02/10 12:00:42;;;;;;;;;24.50;20.25;;;;;;;;119916;1190;25157;-63
2023/02/10 12:03:33;;;;;;;;;27.33;24.00;;;;;;;;119879;1190;25191;-62
2023/02/10 12:06:36;;;;;;;;;25.00;20.25;;;;;;;;119858;1190;25064;-63
2023/02/10 12:09:07;;;;;;;;;26.50;25.50;;;;;;;;119899;1190;25165;-62
2023/02/10 12:11:48;;;;;;;;;19.00;18.00;;;;;;;;119914;1190;25534;-62
2023/02/10 12:14:35;;;;;;;;;27.75;24.75;;;;;;;;119907;1190;25207;-63
2023/02/10 12:17:28;;;;;;;;;22.00;20.50;;;;;;;;120066;1179;25744;-62
2023/02/10 12:20:05;;;;;;;;;25.00;23.67;;;;;;;;119945;1190;25418;-62
2023/02/10 12:23:07;;;;;;;;;22.67;21.67;;;;;;;;119897;1182;25123;-63
2023/02/10 12:26:13;;;;;;;;;26.50;21.00;;;;;;;;119929;1190;24897;-62
2023/02/10 12:29:13;;;;;;;;;25.33;21.00;;;;;;;;120130;1176;24840;-63
2023/02/10 12:31:52;;;;;;;;;23.00;22.25;;;;;;;;120114;1189;25333;-63
2023/02/10 12:34:35;;;;;;;;;21.50;20.50;;;;;;;;119947;1182;25206;-63
2023/02/10 12:37:19;;;;;;;;;22.67;22.67;;;;;;;;120127;1189;24865;-63
2023/02/10 12:40:13;;;;;;;;;23.50;21.25;;;;;;;;119977;1181;24987;-63
2023/02/10 12:42:45;;;;;;;;;23.75;22.00;;;;;;;;119973;1182;25343;-62
2023/02/10 12:45:45;;;;;;;;;22.50;19.00;;;;;;;;120122;1190;25794;-63
2023/02/10 12:48:16;;;;;;;;;26.67;23.33;;;;;;;;119952;1190;25250;-63
2023/02/10 12:50:57;;;;;;;;;25.00;23.50;;;;;;;;120121;1189;25277;-63
2023/02/10 12:53:30;;;;;;;;;26.75;24.75;;;;;;;;119916;1190;24780;-63
2023/02/10 12:56:09;;;;;;;;;24.00;21.50;;;;;;;;120081;1190;24999;-63
2023/02/10 12:58:50;;;;;;;;;26.00;23.67;;;;;;;;119934;1190;25057;-63
2023/02/10 13:01:27;;;;;;;;;28.25;23.50;;;;;;;;119955;1190;25029;-63
2023/02/10 13:04:24;;;;;;;;;28.75;25.50;;;;;;;;119935;1190;25588;-62
2023/02/10 13:06:58;;;;;;;;;25.50;24.00;;;;;;;;120097;1182;25605;-63
2023/02/10 13:09:34;;;;;;;;;30.50;26.75;;;;;;;;119933;1182;24877;-62
2023/02/10 13:12:11;;;;;;;;;32.50;29.00;;;;;;;;120118;1186;24985;-63
2023/02/10 13:14:41;;;;;;;;;27.75;25.25;;;;;;;;120070;1190;24929;-62
2023/02/10 13:17:10;;;;;;;;;30.75;26.00;;;;;;;;119949;1190;24959;-62
2023/02/10 13:20:10;;;;;;;;;21.33;21.33;;;;;;;;120124;1190;25056;-62
2023/02/10 13:23:20;;;;;;;;;25.50;23.25;;;;;;;;119970;1190;24852;-63
2023/02/10 13:26:00;;;;;;;;;25.50;21.50;;;;;;;;119927;1185;25256;-62
2023/02/10 13:28:47;;;;;;;;;27.75;24.25;;;;;;;;120087;1190;25147;-63
2023/02/10 13:31:24;;;;;;;;;23.50;22.00;;;;;;;;120115;1182;25289;-63
2023/02/10 13:34:18;;;;;;;;;27.50;25.00;;;;;;;;120126;1182;25107;-62
2023/02/10 13:36:53;;;;;;;;;26.00;23.67;;;;;;;;120098;1186;24679;-63
2023/02/10 13:39:25;;;;;;;;;25.00;18.00;;;;;;;;119947;1190;25015;-62
2023/02/10 13:42:31;;;;;;;;;27.33;24.00;;;;;;;;120102;1190;25242;-63
2023/02/10 13:45:22;;;;;;;;;30.33;23.33;;;;;;;;120123;1190;25712;-63
2023/02/10 13:47:54;;;;;;;;;27.33;22.67;;;;;;;;120119;1182;24998;-63
2023/02/10 13:50:32;;;;;;;;;26.75;23.50;;;;;;;;120105;1189;25448;-61
2023/02/10 13:53:23;;;;;;;;;33.75;24.75;;;;;;;;119914;1186;25027;-62
2023/02/10 13:56:23;;;;;;;;;28.00;26.50;;;;;;;;119760;1189;24899;-62
2023/02/10 13:58:57;;;;;;;;;33.25;26.75;;;;;;;;119960;1190;25017;-67
2023/02/10 14:01:38;;;;;;;;;34.00;24.00;;;;;;;;120005;1190;24840;-64
2023/02/10 14:04:40;;;;;;;;;28.33;23.33;;;;;;;;119922;1182;25225;-67
2023/02/10 14:07:32;;;;;;;;;28.00;24.25;;;;;;;;119976;1190;25069;-65
2023/02/10 14:10:24;;;;;;;;;25.25;22.00;;;;;;;;119898;1182;24775;-63
2023/02/10 14:13:04;;;;;;;;;22.50;19.75;;;;;;;;119956;1186;24902;-63
2023/02/10 14:15:36;;;;;;;;;24.75;23.50;;;;;;;;120072;1190;24902;-61
2023/02/10 14:18:20;;;;;;;;;32.25;25.00;;;;;;;;119988;1190;25466;-62
2023/02/10 14:21:05;;;;;;;;;31.25;22.25;;;;;;;;119907;1190;25285;-62
2023/02/10 14:23:35;;;;;;;;;28.33;21.00;;;;;;;;119944;1190;25098;-61
2023/02/10 14:26:29;;;;;;;;;32.00;25.67;;;;;;;;119958;1183;24872;-62
2023/02/10 14:28:58;;;;;;;;;29.00;25.00;;;;;;;;119939;1189;24697;-63
2023/02/10 14:31:29;;;;;;;;;45.67;34.67;;;;;;;;120058;1189;25548;-62
2023/02/10 14:34:00;;;;;;;;;38.00;28.50;;;;;;;;119924;1182;24957;-64
2023/02/10 14:36:29;;;;;;;;;44.00;35.00;;;;;;;;119834;1190;25109;-66
2023/02/10 14:39:00;;;;;;;;;48.00;39.00;;;;;;;;119918;1190;24980;-65
2023/02/10 14:41:31;;;;;;;;;45.67;36.33;;;;;;;;119902;1188;25744;-67
2023/02/10 14:43:59;;;;;;;;;41.50;35.00;;;;;;;;119835;1190;25269;-65
2023/02/10 14:46:30;;;;;;;;;42.00;32.50;;;;;;;;119996;1190;24831;-64